Aviation Digital Data Service (ADDS)

Output produced by METARs form (0037 UTC 24 May 2022)
found at http://www.aviationweather.gov/metar/data/
 
TAF MSLP 232125Z 2400/2424 VRB02KT 9999 FEW020 FEW037CB TX32/2418Z TN21/2410Z 
     FM240400 01005KT 9999 SCT020 SCT070 
     FM241200 09006KT 9999 SCT023 SCT070 
     FM241800 20007KT 9999 SCT023 FEW037CB 
     TEMPO 2420/2422 8000 TSRA
       
TAF MSSS 232125Z 2400/2424 19006KT 9999 SCT023 FEW037CB TX29/2419Z TN21/2412Z 
     FM240400 33004KT 9999 FEW020 SCT033 
     FM241300 12003KT 9999 SCT023 
     FM241800 16008KT 9999 SCT023 FEW037CB 
     TEMPO 2420/2424 7000 TSRA